sensor_id;sensor_type;location;lat;lon;timestamp;temperature;humidity
7720;DHT22;3902;49.474;8.616;2023-08-20T00:00:07;26.10;99.90
7720;DHT22;3902;49.474;8.616;2023-08-20T00:02:36;26.10;99.90
7720;DHT22;3902;49.474;8.616;2023-08-20T00:05:02;26.10;99.90
7720;DHT22;3902;49.474;8.616;2023-08-20T00:07:30;26.00;99.90
7720;DHT22;3902;49.474;8.616;2023-08-20T00:09:56;26.10;99.90
7720;DHT22;3902;49.474;8.616;2023-08-20T00:12:21;26.00;99.90
7720;DHT22;3902;49.474;8.616;2023-08-20T00:15:02;26.00;99.90
7720;DHT22;3902;49.474;8.616;2023-08-20T00:17:32;26.00;99.90
7720;DHT22;3902;49.474;8.616;2023-08-20T00:19:58;26.00;99.90
7720;DHT22;3902;49.474;8.616;2023-08-20T00:22:26;25.90;99.90
7720;DHT22;3902;49.474;8.616;2023-08-20T00:24:53;25.90;99.90
7720;DHT22;3902;49.474;8.616;2023-08-20T00:27:19;25.90;99.90
7720;DHT22;3902;49.474;8.616;2023-08-20T00:29:45;25.80;99.90
7720;DHT22;3902;49.474;8.616;2023-08-20T00:32:10;25.80;99.90
7720;DHT22;3902;49.474;8.616;2023-08-20T00:34:36;25.80;99.90
7720;DHT22;3902;49.474;8.616;2023-08-20T00:37:02;25.80;99.90
7720;DHT22;3902;49.474;8.616;2023-08-20T00:39:28;25.80;99.90
7720;DHT22;3902;49.474;8.616;2023-08-20T00:41:54;25.70;99.90
7720;DHT22;3902;49.474;8.616;2023-08-20T00:44:20;25.70;99.90
7720;DHT22;3902;49.474;8.616;2023-08-20T00:46:45;25.60;99.90
7720;DHT22;3902;49.474;8.616;2023-08-20T00:49:11;25.60;99.90
7720;DHT22;3902;49.474;8.616;2023-08-20T00:51:37;25.60;99.90
7720;DHT22;3902;49.474;8.616;2023-08-20T00:54:03;25.60;99.90
7720;DHT22;3902;49.474;8.616;2023-08-20T00:56:29;25.50;99.90
7720;DHT22;3902;49.474;8.616;2023-08-20T00:58:55;25.50;99.90
7720;DHT22;3902;49.474;8.616;2023-08-20T01:01:21;25.50;99.90
7720;DHT22;3902;49.474;8.616;2023-08-20T01:03:47;25.50;99.90
7720;DHT22;3902;49.474;8.616;2023-08-20T01:06:23;25.40;99.90
7720;DHT22;3902;49.474;8.616;2023-08-20T01:09:01;25.40;99.90
7720;DHT22;3902;49.474;8.616;2023-08-20T01:11:34;25.40;99.90
7720;DHT22;3902;49.474;8.616;2023-08-20T01:14:02;25.40;99.90
7720;DHT22;3902;49.474;8.616;2023-08-20T01:16:28;25.30;99.90
7720;DHT22;3902;49.474;8.616;2023-08-20T01:18:53;25.30;99.90
7720;DHT22;3902;49.474;8.616;2023-08-20T01:21:39;25.30;99.90
7720;DHT22;3902;49.474;8.616;2023-08-20T01:24:23;25.30;99.90
7720;DHT22;3902;49.474;8.616;2023-08-20T01:30:10;25.20;99.90
7720;DHT22;3902;49.474;8.616;2023-08-20T01:32:37;25.20;99.90
7720;DHT22;3902;49.474;8.616;2023-08-20T01:35:03;25.20;99.90
7720;DHT22;3902;49.474;8.616;2023-08-20T01:37:29;25.10;99.90
7720;DHT22;3902;49.474;8.616;2023-08-20T01:39:55;25.10;99.90
7720;DHT22;3902;49.474;8.616;2023-08-20T01:42:20;25.10;99.90
7720;DHT22;3902;49.474;8.616;2023-08-20T01:44:46;25.10;99.90
7720;DHT22;3902;49.474;8.616;2023-08-20T01:47:11;25.00;99.90
7720;DHT22;3902;49.474;8.616;2023-08-20T01:49:37;25.00;99.90
7720;DHT22;3902;49.474;8.616;2023-08-20T01:52:02;25.00;99.90
7720;DHT22;3902;49.474;8.616;2023-08-20T01:54:29;25.00;99.90
7720;DHT22;3902;49.474;8.616;2023-08-20T01:56:54;25.00;99.90
7720;DHT22;3902;49.474;8.616;2023-08-20T01:59:21;25.00;99.90
7720;DHT22;3902;49.474;8.616;2023-08-20T02:01:47;24.90;99.90
7720;DHT22;3902;49.474;8.616;2023-08-20T02:04:12;24.90;99.90
7720;DHT22;3902;49.474;8.616;2023-08-20T02:06:38;24.90;99.90
7720;DHT22;3902;49.474;8.616;2023-08-20T02:09:03;24.90;99.90
7720;DHT22;3902;49.474;8.616;2023-08-20T02:11:29;24.90;99.90
7720;DHT22;3902;49.474;8.616;2023-08-20T02:13:58;24.80;99.90
7720;DHT22;3902;49.474;8.616;2023-08-20T02:16:23;24.80;99.90
7720;DHT22;3902;49.474;8.616;2023-08-20T02:18:49;24.70;99.90
7720;DHT22;3902;49.474;8.616;2023-08-20T02:21:14;24.70;99.90
7720;DHT22;3902;49.474;8.616;2023-08-20T02:23:40;24.70;99.90
7720;DHT22;3902;49.474;8.616;2023-08-20T02:26:05;24.70;99.90
7720;DHT22;3902;49.474;8.616;2023-08-20T02:28:31;24.70;99.90
7720;DHT22;3902;49.474;8.616;2023-08-20T02:30:56;24.70;99.90
7720;DHT22;3902;49.474;8.616;2023-08-20T02:33:22;24.60;99.90
7720;DHT22;3902;49.474;8.616;2023-08-20T02:35:48;24.60;99.90
7720;DHT22;3902;49.474;8.616;2023-08-20T02:38:13;24.60;99.90
7720;DHT22;3902;49.474;8.616;2023-08-20T02:40:43;24.60;99.90
7720;DHT22;3902;49.474;8.616;2023-08-20T02:43:09;24.50;99.90
7720;DHT22;3902;49.474;8.616;2023-08-20T02:45:40;24.50;99.90
7720;DHT22;3902;49.474;8.616;2023-08-20T02:48:06;24.50;99.90
7720;DHT22;3902;49.474;8.616;2023-08-20T02:50:32;24.50;99.90
7720;DHT22;3902;49.474;8.616;2023-08-20T02:52:57;24.50;99.90
7720;DHT22;3902;49.474;8.616;2023-08-20T02:55:23;24.40;99.90
7720;DHT22;3902;49.474;8.616;2023-08-20T02:57:48;24.50;99.90
7720;DHT22;3902;49.474;8.616;2023-08-20T03:00:14;24.40;99.90
7720;DHT22;3902;49.474;8.616;2023-08-20T03:02:39;24.40;99.90
7720;DHT22;3902;49.474;8.616;2023-08-20T03:05:08;24.40;99.90
7720;DHT22;3902;49.474;8.616;2023-08-20T03:07:34;24.40;99.90
7720;DHT22;3902;49.474;8.616;2023-08-20T03:09:59;24.30;99.90
7720;DHT22;3902;49.474;8.616;2023-08-20T03:12:25;24.30;99.90
7720;DHT22;3902;49.474;8.616;2023-08-20T03:14:50;24.30;99.90
7720;DHT22;3902;49.474;8.616;2023-08-20T03:17:16;24.30;99.90
7720;DHT22;3902;49.474;8.616;2023-08-20T03:19:54;24.30;99.90
7720;DHT22;3902;49.474;8.616;2023-08-20T03:22:20;24.20;99.90
7720;DHT22;3902;49.474;8.616;2023-08-20T03:24:46;24.10;99.90
7720;DHT22;3902;49.474;8.616;2023-08-20T03:27:11;24.10;99.90
7720;DHT22;3902;49.474;8.616;2023-08-20T03:29:37;24.10;99.90
7720;DHT22;3902;49.474;8.616;2023-08-20T03:32:03;24.10;99.90
7720;DHT22;3902;49.474;8.616;2023-08-20T03:34:28;24.10;99.90
7720;DHT22;3902;49.474;8.616;2023-08-20T03:36:54;24.10;99.90
7720;DHT22;3902;49.474;8.616;2023-08-20T03:39:19;24.10;99.90
7720;DHT22;3902;49.474;8.616;2023-08-20T03:41:45;24.10;99.90
7720;DHT22;3902;49.474;8.616;2023-08-20T03:44:10;24.00;99.90
7720;DHT22;3902;49.474;8.616;2023-08-20T03:46:36;24.10;99.90
7720;DHT22;3902;49.474;8.616;2023-08-20T03:49:01;24.00;99.90
7720;DHT22;3902;49.474;8.616;2023-08-20T03:51:27;24.10;99.90
7720;DHT22;3902;49.474;8.616;2023-08-20T03:53:52;24.10;99.90
7720;DHT22;3902;49.474;8.616;2023-08-20T03:56:18;24.00;99.90
7720;DHT22;3902;49.474;8.616;2023-08-20T03:58:43;24.00;99.90
7720;DHT22;3902;49.474;8.616;2023-08-20T04:01:09;23.90;99.90
7720;DHT22;3902;49.474;8.616;2023-08-20T04:03:34;23.90;99.90
7720;DHT22;3902;49.474;8.616;2023-08-20T04:06:00;23.90;99.90
7720;DHT22;3902;49.474;8.616;2023-08-20T04:08:25;23.90;99.90
7720;DHT22;3902;49.474;8.616;2023-08-20T04:10:52;23.90;99.90
7720;DHT22;3902;49.474;8.616;2023-08-20T04:13:17;23.90;99.90
7720;DHT22;3902;49.474;8.616;2023-08-20T04:15:44;23.90;99.90
7720;DHT22;3902;49.474;8.616;2023-08-20T04:18:09;23.90;99.90
7720;DHT22;3902;49.474;8.616;2023-08-20T04:20:35;23.90;99.90
7720;DHT22;3902;49.474;8.616;2023-08-20T04:23:01;23.90;99.90
7720;DHT22;3902;49.474;8.616;2023-08-20T04:25:26;23.90;99.90
7720;DHT22;3902;49.474;8.616;2023-08-20T04:27:52;23.90;99.90
7720;DHT22;3902;49.474;8.616;2023-08-20T04:30:18;23.80;99.90
7720;DHT22;3902;49.474;8.616;2023-08-20T04:32:43;23.80;99.90
7720;DHT22;3902;49.474;8.616;2023-08-20T04:35:09;23.70;99.90
7720;DHT22;3902;49.474;8.616;2023-08-20T04:37:35;23.70;99.90
7720;DHT22;3902;49.474;8.616;2023-08-20T04:40:01;23.70;99.90
7720;DHT22;3902;49.474;8.616;2023-08-20T04:42:27;23.80;99.90
7720;DHT22;3902;49.474;8.616;2023-08-20T04:44:52;23.80;99.90
7720;DHT22;3902;49.474;8.616;2023-08-20T04:47:18;23.70;99.90
7720;DHT22;3902;49.474;8.616;2023-08-20T04:49:44;23.70;99.90
7720;DHT22;3902;49.474;8.616;2023-08-20T04:52:09;23.70;99.90
7720;DHT22;3902;49.474;8.616;2023-08-20T04:54:34;23.70;99.90
7720;DHT22;3902;49.474;8.616;2023-08-20T04:57:00;23.70;99.90
7720;DHT22;3902;49.474;8.616;2023-08-20T04:59:25;23.70;99.90
7720;DHT22;3902;49.474;8.616;2023-08-20T05:01:51;23.70;99.90
7720;DHT22;3902;49.474;8.616;2023-08-20T05:04:17;23.70;99.90
7720;DHT22;3902;49.474;8.616;2023-08-20T05:06:42;23.70;99.90
7720;DHT22;3902;49.474;8.616;2023-08-20T05:09:08;23.70;99.90
7720;DHT22;3902;49.474;8.616;2023-08-20T05:11:33;23.70;99.90
7720;DHT22;3902;49.474;8.616;2023-08-20T05:13:59;23.70;99.90
7720;DHT22;3902;49.474;8.616;2023-08-20T05:16:25;23.70;99.90
7720;DHT22;3902;49.474;8.616;2023-08-20T05:18:50;23.70;99.90
7720;DHT22;3902;49.474;8.616;2023-08-20T05:21:16;23.70;99.90
7720;DHT22;3902;49.474;8.616;2023-08-20T05:23:41;23.70;99.90
7720;DHT22;3902;49.474;8.616;2023-08-20T05:26:07;23.70;99.90
7720;DHT22;3902;49.474;8.616;2023-08-20T05:28:33;23.70;99.90
7720;DHT22;3902;49.474;8.616;2023-08-20T05:30:59;23.70;99.90
7720;DHT22;3902;49.474;8.616;2023-08-20T05:33:26;23.70;99.90
7720;DHT22;3902;49.474;8.616;2023-08-20T05:35:52;23.70;99.90
7720;DHT22;3902;49.474;8.616;2023-08-20T05:38:18;23.70;99.90
7720;DHT22;3902;49.474;8.616;2023-08-20T05:40:43;23.70;99.90
7720;DHT22;3902;49.474;8.616;2023-08-20T05:43:09;23.70;99.90
7720;DHT22;3902;49.474;8.616;2023-08-20T05:45:35;23.70;99.90
7720;DHT22;3902;49.474;8.616;2023-08-20T05:48:00;23.80;99.90
7720;DHT22;3902;49.474;8.616;2023-08-20T05:50:26;23.80;99.90
7720;DHT22;3902;49.474;8.616;2023-08-20T05:52:52;23.80;99.90
7720;DHT22;3902;49.474;8.616;2023-08-20T05:55:18;23.90;99.90
7720;DHT22;3902;49.474;8.616;2023-08-20T05:57:43;23.90;99.90
7720;DHT22;3902;49.474;8.616;2023-08-20T06:00:10;23.90;99.90
7720;DHT22;3902;49.474;8.616;2023-08-20T06:02:36;23.90;99.90
7720;DHT22;3902;49.474;8.616;2023-08-20T06:05:02;24.00;99.90
7720;DHT22;3902;49.474;8.616;2023-08-20T06:07:32;24.00;99.90
7720;DHT22;3902;49.474;8.616;2023-08-20T06:09:58;24.00;99.90
7720;DHT22;3902;49.474;8.616;2023-08-20T06:12:24;24.00;99.90
7720;DHT22;3902;49.474;8.616;2023-08-20T06:14:49;24.10;99.90
7720;DHT22;3902;49.474;8.616;2023-08-20T06:17:15;24.10;99.90
7720;DHT22;3902;49.474;8.616;2023-08-20T06:19:41;24.10;99.90
7720;DHT22;3902;49.474;8.616;2023-08-20T06:22:07;24.20;99.90
7720;DHT22;3902;49.474;8.616;2023-08-20T06:24:32;24.10;99.90
7720;DHT22;3902;49.474;8.616;2023-08-20T06:26:58;24.20;99.90
7720;DHT22;3902;49.474;8.616;2023-08-20T06:29:23;24.20;99.90
7720;DHT22;3902;49.474;8.616;2023-08-20T06:31:49;24.30;99.90
7720;DHT22;3902;49.474;8.616;2023-08-20T06:34:16;24.30;99.90
7720;DHT22;3902;49.474;8.616;2023-08-20T06:36:41;24.30;99.90
7720;DHT22;3902;49.474;8.616;2023-08-20T06:39:07;24.40;99.90
7720;DHT22;3902;49.474;8.616;2023-08-20T06:41:33;24.40;99.90
7720;DHT22;3902;49.474;8.616;2023-08-20T06:43:59;24.40;99.90
7720;DHT22;3902;49.474;8.616;2023-08-20T06:46:25;24.50;99.90
7720;DHT22;3902;49.474;8.616;2023-08-20T06:48:50;24.50;99.90
7720;DHT22;3902;49.474;8.616;2023-08-20T06:51:19;24.50;99.90
7720;DHT22;3902;49.474;8.616;2023-08-20T06:53:45;24.60;99.90
7720;DHT22;3902;49.474;8.616;2023-08-20T06:56:11;24.60;99.90
7720;DHT22;3902;49.474;8.616;2023-08-20T06:58:38;24.70;99.90
7720;DHT22;3902;49.474;8.616;2023-08-20T07:01:04;24.70;99.90
7720;DHT22;3902;49.474;8.616;2023-08-20T07:03:37;24.70;99.90
7720;DHT22;3902;49.474;8.616;2023-08-20T07:06:04;24.70;99.90
7720;DHT22;3902;49.474;8.616;2023-08-20T07:08:29;24.80;99.90
7720;DHT22;3902;49.474;8.616;2023-08-20T07:10:55;24.90;99.90
7720;DHT22;3902;49.474;8.616;2023-08-20T07:13:22;24.90;99.90
7720;DHT22;3902;49.474;8.616;2023-08-20T07:15:48;24.90;99.90
7720;DHT22;3902;49.474;8.616;2023-08-20T07:18:14;24.90;99.90
7720;DHT22;3902;49.474;8.616;2023-08-20T07:20:43;25.00;99.90
7720;DHT22;3902;49.474;8.616;2023-08-20T07:23:10;25.00;99.90
7720;DHT22;3902;49.474;8.616;2023-08-20T07:25:37;25.00;99.90
7720;DHT22;3902;49.474;8.616;2023-08-20T07:28:04;25.00;99.90
7720;DHT22;3902;49.474;8.616;2023-08-20T07:30:30;25.10;99.90
7720;DHT22;3902;49.474;8.616;2023-08-20T07:32:55;25.10;99.90
7720;DHT22;3902;49.474;8.616;2023-08-20T07:35:21;25.10;99.90
7720;DHT22;3902;49.474;8.616;2023-08-20T07:37:47;25.10;99.90
7720;DHT22;3902;49.474;8.616;2023-08-20T07:40:12;25.10;99.90
7720;DHT22;3902;49.474;8.616;2023-08-20T07:42:41;25.10;99.90
7720;DHT22;3902;49.474;8.616;2023-08-20T07:45:07;25.10;99.90
7720;DHT22;3902;49.474;8.616;2023-08-20T07:47:36;25.10;99.90
7720;DHT22;3902;49.474;8.616;2023-08-20T07:50:02;25.10;99.90
7720;DHT22;3902;49.474;8.616;2023-08-20T07:52:28;25.10;99.90
7720;DHT22;3902;49.474;8.616;2023-08-20T07:54:53;25.10;99.90
7720;DHT22;3902;49.474;8.616;2023-08-20T07:57:19;25.20;99.90
7720;DHT22;3902;49.474;8.616;2023-08-20T07:59:44;25.20;99.90
7720;DHT22;3902;49.474;8.616;2023-08-20T08:02:10;25.20;99.90
7720;DHT22;3902;49.474;8.616;2023-08-20T08:04:36;25.20;99.90
7720;DHT22;3902;49.474;8.616;2023-08-20T08:07:01;25.30;99.90
7720;DHT22;3902;49.474;8.616;2023-08-20T08:09:30;25.30;99.90
7720;DHT22;3902;49.474;8.616;2023-08-20T08:11:57;25.30;99.90
7720;DHT22;3902;49.474;8.616;2023-08-20T08:14:23;25.30;99.90
7720;DHT22;3902;49.474;8.616;2023-08-20T08:16:48;25.40;99.90
7720;DHT22;3902;49.474;8.616;2023-08-20T08:19:14;25.50;99.90
7720;DHT22;3902;49.474;8.616;2023-08-20T08:21:41;25.50;99.90
7720;DHT22;3902;49.474;8.616;2023-08-20T08:24:06;25.60;99.90
7720;DHT22;3902;49.474;8.616;2023-08-20T08:26:33;25.60;99.90
7720;DHT22;3902;49.474;8.616;2023-08-20T08:28:59;25.70;99.90
7720;DHT22;3902;49.474;8.616;2023-08-20T08:31:25;25.70;99.90
7720;DHT22;3902;49.474;8.616;2023-08-20T08:33:50;25.80;99.90
7720;DHT22;3902;49.474;8.616;2023-08-20T08:36:15;25.80;99.90
7720;DHT22;3902;49.474;8.616;2023-08-20T08:38:42;25.90;99.90
7720;DHT22;3902;49.474;8.616;2023-08-20T08:41:11;25.90;99.90
7720;DHT22;3902;49.474;8.616;2023-08-20T08:43:37;26.00;99.90
7720;DHT22;3902;49.474;8.616;2023-08-20T08:46:06;26.10;99.90
7720;DHT22;3902;49.474;8.616;2023-08-20T08:48:34;26.10;99.90
7720;DHT22;3902;49.474;8.616;2023-08-20T08:51:01;26.30;99.90
7720;DHT22;3902;49.474;8.616;2023-08-20T08:53:26;26.30;99.90
7720;DHT22;3902;49.474;8.616;2023-08-20T08:55:52;26.40;99.90
7720;DHT22;3902;49.474;8.616;2023-08-20T08:58:17;26.40;99.90
7720;DHT22;3902;49.474;8.616;2023-08-20T09:00:43;26.50;99.90
7720;DHT22;3902;49.474;8.616;2023-08-20T09:03:09;26.50;99.90
7720;DHT22;3902;49.474;8.616;2023-08-20T09:05:46;26.60;99.90
7720;DHT22;3902;49.474;8.616;2023-08-20T09:08:19;26.70;99.90
7720;DHT22;3902;49.474;8.616;2023-08-20T09:10:45;26.80;99.90
7720;DHT22;3902;49.474;8.616;2023-08-20T09:13:10;26.80;99.90
7720;DHT22;3902;49.474;8.616;2023-08-20T09:15:36;26.90;99.90
7720;DHT22;3902;49.474;8.616;2023-08-20T09:18:02;26.90;99.90
7720;DHT22;3902;49.474;8.616;2023-08-20T09:20:36;27.00;99.90
7720;DHT22;3902;49.474;8.616;2023-08-20T09:23:01;27.20;99.90
7720;DHT22;3902;49.474;8.616;2023-08-20T09:25:27;27.30;99.90
7720;DHT22;3902;49.474;8.616;2023-08-20T09:27:53;27.30;99.90
7720;DHT22;3902;49.474;8.616;2023-08-20T09:30:19;27.40;99.90
7720;DHT22;3902;49.474;8.616;2023-08-20T09:32:46;27.50;99.90
7720;DHT22;3902;49.474;8.616;2023-08-20T09:35:27;27.50;99.90
7720;DHT22;3902;49.474;8.616;2023-08-20T09:37:58;27.60;99.90
7720;DHT22;3902;49.474;8.616;2023-08-20T09:40:25;27.60;99.90
7720;DHT22;3902;49.474;8.616;2023-08-20T09:42:51;27.70;99.90
7720;DHT22;3902;49.474;8.616;2023-08-20T09:45:19;27.80;99.90
7720;DHT22;3902;49.474;8.616;2023-08-20T09:47:46;27.80;99.90
7720;DHT22;3902;49.474;8.616;2023-08-20T09:50:13;28.00;99.90
7720;DHT22;3902;49.474;8.616;2023-08-20T09:52:55;28.00;99.90
7720;DHT22;3902;49.474;8.616;2023-08-20T09:55:22;28.10;99.90
7720;DHT22;3902;49.474;8.616;2023-08-20T09:57:51;28.20;99.90
7720;DHT22;3902;49.474;8.616;2023-08-20T10:00:17;28.30;99.90
7720;DHT22;3902;49.474;8.616;2023-08-20T10:02:43;28.30;99.90
7720;DHT22;3902;49.474;8.616;2023-08-20T10:05:09;28.50;99.90
7720;DHT22;3902;49.474;8.616;2023-08-20T10:07:36;28.50;99.90
7720;DHT22;3902;49.474;8.616;2023-08-20T10:10:04;28.60;99.90
7720;DHT22;3902;49.474;8.616;2023-08-20T10:12:31;28.60;99.90
7720;DHT22;3902;49.474;8.616;2023-08-20T10:14:57;28.70;99.90
7720;DHT22;3902;49.474;8.616;2023-08-20T10:17:24;28.80;99.90
7720;DHT22;3902;49.474;8.616;2023-08-20T10:19:51;29.00;99.90
7720;DHT22;3902;49.474;8.616;2023-08-20T10:22:17;29.00;99.90
7720;DHT22;3902;49.474;8.616;2023-08-20T10:24:52;29.00;99.90
7720;DHT22;3902;49.474;8.616;2023-08-20T10:27:28;29.00;99.90
7720;DHT22;3902;49.474;8.616;2023-08-20T10:29:58;29.10;99.90
7720;DHT22;3902;49.474;8.616;2023-08-20T10:32:43;29.20;99.90
7720;DHT22;3902;49.474;8.616;2023-08-20T10:35:09;29.30;99.90
7720;DHT22;3902;49.474;8.616;2023-08-20T10:37:35;29.50;99.90
7720;DHT22;3902;49.474;8.616;2023-08-20T10:40:02;29.50;99.90
7720;DHT22;3902;49.474;8.616;2023-08-20T10:42:30;29.60;99.90
7720;DHT22;3902;49.474;8.616;2023-08-20T10:45:08;29.70;99.90
7720;DHT22;3902;49.474;8.616;2023-08-20T10:47:44;29.80;99.90
7720;DHT22;3902;49.474;8.616;2023-08-20T10:50:12;29.90;99.90
7720;DHT22;3902;49.474;8.616;2023-08-20T10:52:50;30.00;99.90
7720;DHT22;3902;49.474;8.616;2023-08-20T10:55:22;30.30;99.90
7720;DHT22;3902;49.474;8.616;2023-08-20T10:57:58;30.40;99.90
7720;DHT22;3902;49.474;8.616;2023-08-20T11:00:25;30.60;99.90
7720;DHT22;3902;49.474;8.616;2023-08-20T11:02:52;30.90;99.90
7720;DHT22;3902;49.474;8.616;2023-08-20T11:05:21;31.40;99.90
7720;DHT22;3902;49.474;8.616;2023-08-20T11:07:48;32.00;99.90
7720;DHT22;3902;49.474;8.616;2023-08-20T11:10:15;32.80;99.90
7720;DHT22;3902;49.474;8.616;2023-08-20T11:12:42;33.50;99.90
7720;DHT22;3902;49.474;8.616;2023-08-20T11:15:11;34.10;99.90
7720;DHT22;3902;49.474;8.616;2023-08-20T11:17:55;34.70;99.90
7720;DHT22;3902;49.474;8.616;2023-08-20T11:20:22;35.20;99.90
7720;DHT22;3902;49.474;8.616;2023-08-20T11:22:47;35.60;99.90
7720;DHT22;3902;49.474;8.616;2023-08-20T11:25:13;35.90;99.90
7720;DHT22;3902;49.474;8.616;2023-08-20T11:27:42;36.20;99.90
7720;DHT22;3902;49.474;8.616;2023-08-20T11:30:09;36.60;99.90
7720;DHT22;3902;49.474;8.616;2023-08-20T11:32:37;37.00;99.90
7720;DHT22;3902;49.474;8.616;2023-08-20T11:35:04;37.40;99.90
7720;DHT22;3902;49.474;8.616;2023-08-20T11:37:30;37.70;99.90
7720;DHT22;3902;49.474;8.616;2023-08-20T11:39:56;37.90;99.90
7720;DHT22;3902;49.474;8.616;2023-08-20T11:42:22;38.10;99.90
7720;DHT22;3902;49.474;8.616;2023-08-20T11:44:49;38.40;99.90
7720;DHT22;3902;49.474;8.616;2023-08-20T11:47:18;38.20;99.90
7720;DHT22;3902;49.474;8.616;2023-08-20T11:49:44;38.50;99.90
7720;DHT22;3902;49.474;8.616;2023-08-20T11:52:10;37.70;99.90
7720;DHT22;3902;49.474;8.616;2023-08-20T11:54:36;38.30;99.90
7720;DHT22;3902;49.474;8.616;2023-08-20T11:57:03;38.50;99.90
7720;DHT22;3902;49.474;8.616;2023-08-20T11:59:29;38.50;99.90
7720;DHT22;3902;49.474;8.616;2023-08-20T12:01:59;38.70;99.90
7720;DHT22;3902;49.474;8.616;2023-08-20T12:04:29;38.90;99.90
7720;DHT22;3902;49.474;8.616;2023-08-20T12:07:25;39.00;99.90
7720;DHT22;3902;49.474;8.616;2023-08-20T12:09:52;38.90;99.60
7720;DHT22;3902;49.474;8.616;2023-08-20T12:12:19;39.10;99.80
7720;DHT22;3902;49.474;8.616;2023-08-20T12:14:45;39.10;99.20
7720;DHT22;3902;49.474;8.616;2023-08-20T12:17:11;39.20;99.30
7720;DHT22;3902;49.474;8.616;2023-08-20T12:19:36;39.40;99.00
7720;DHT22;3902;49.474;8.616;2023-08-20T12:22:02;39.60;98.10
7720;DHT22;3902;49.474;8.616;2023-08-20T12:24:29;39.80;97.80
7720;DHT22;3902;49.474;8.616;2023-08-20T12:26:54;40.00;97.10
7720;DHT22;3902;49.474;8.616;2023-08-20T12:29:20;39.50;95.20
7720;DHT22;3902;49.474;8.616;2023-08-20T12:31:45;39.70;96.10
7720;DHT22;3902;49.474;8.616;2023-08-20T12:34:11;39.70;95.80
7720;DHT22;3902;49.474;8.616;2023-08-20T12:36:37;39.80;96.20
7720;DHT22;3902;49.474;8.616;2023-08-20T12:39:03;40.00;96.20
7720;DHT22;3902;49.474;8.616;2023-08-20T12:41:30;40.10;95.60
7720;DHT22;3902;49.474;8.616;2023-08-20T12:43:55;39.80;93.90
7720;DHT22;3902;49.474;8.616;2023-08-20T12:46:21;40.00;93.30
7720;DHT22;3902;49.474;8.616;2023-08-20T12:48:46;40.10;94.40
7720;DHT22;3902;49.474;8.616;2023-08-20T12:51:12;40.20;93.60
7720;DHT22;3902;49.474;8.616;2023-08-20T12:53:39;40.00;92.20
7720;DHT22;3902;49.474;8.616;2023-08-20T12:56:05;39.50;93.60
7720;DHT22;3902;49.474;8.616;2023-08-20T12:58:30;39.80;94.50
7720;DHT22;3902;49.474;8.616;2023-08-20T13:00:56;40.00;93.50
7720;DHT22;3902;49.474;8.616;2023-08-20T13:03:21;40.00;91.80
7720;DHT22;3902;49.474;8.616;2023-08-20T13:05:47;40.30;92.80
7720;DHT22;3902;49.474;8.616;2023-08-20T13:08:13;40.30;92.30
7720;DHT22;3902;49.474;8.616;2023-08-20T13:10:40;40.00;92.00
7720;DHT22;3902;49.474;8.616;2023-08-20T13:13:09;39.60;91.10
7720;DHT22;3902;49.474;8.616;2023-08-20T13:15:35;39.00;91.80
7720;DHT22;3902;49.474;8.616;2023-08-20T13:18:01;39.30;91.30
7720;DHT22;3902;49.474;8.616;2023-08-20T13:20:27;39.50;92.50
7720;DHT22;3902;49.474;8.616;2023-08-20T13:22:53;39.70;91.30
7720;DHT22;3902;49.474;8.616;2023-08-20T13:25:19;39.60;90.30
7720;DHT22;3902;49.474;8.616;2023-08-20T13:27:47;39.50;90.00
7720;DHT22;3902;49.474;8.616;2023-08-20T13:30:12;39.30;89.50
7720;DHT22;3902;49.474;8.616;2023-08-20T13:32:38;39.30;91.80
7720;DHT22;3902;49.474;8.616;2023-08-20T13:35:04;39.60;91.40
7720;DHT22;3902;49.474;8.616;2023-08-20T13:37:30;39.80;92.20
7720;DHT22;3902;49.474;8.616;2023-08-20T13:39:59;40.00;91.70
7720;DHT22;3902;49.474;8.616;2023-08-20T13:42:25;40.20;90.20
7720;DHT22;3902;49.474;8.616;2023-08-20T13:44:51;40.30;90.80
7720;DHT22;3902;49.474;8.616;2023-08-20T13:47:17;40.50;90.40
7720;DHT22;3902;49.474;8.616;2023-08-20T13:49:42;40.60;90.20
7720;DHT22;3902;49.474;8.616;2023-08-20T13:52:09;40.70;89.70
7720;DHT22;3902;49.474;8.616;2023-08-20T13:54:36;40.70;90.00
7720;DHT22;3902;49.474;8.616;2023-08-20T13:57:02;40.70;90.10
7720;DHT22;3902;49.474;8.616;2023-08-20T13:59:29;40.70;88.40
7720;DHT22;3902;49.474;8.616;2023-08-20T14:01:54;40.70;89.80
7720;DHT22;3902;49.474;8.616;2023-08-20T14:04:20;40.60;88.00
7720;DHT22;3902;49.474;8.616;2023-08-20T14:06:45;40.60;89.90
7720;DHT22;3902;49.474;8.616;2023-08-20T14:09:11;40.60;88.00
7720;DHT22;3902;49.474;8.616;2023-08-20T14:11:36;40.50;88.20
7720;DHT22;3902;49.474;8.616;2023-08-20T14:14:02;40.50;86.70
7720;DHT22;3902;49.474;8.616;2023-08-20T14:16:27;40.40;87.70
7720;DHT22;3902;49.474;8.616;2023-08-20T14:18:53;40.10;85.60
7720;DHT22;3902;49.474;8.616;2023-08-20T14:21:18;40.10;89.40
7720;DHT22;3902;49.474;8.616;2023-08-20T14:23:44;40.10;88.60
7720;DHT22;3902;49.474;8.616;2023-08-20T14:26:09;40.10;89.00
7720;DHT22;3902;49.474;8.616;2023-08-20T14:28:35;40.00;88.20
7720;DHT22;3902;49.474;8.616;2023-08-20T14:31:04;40.00;88.20
7720;DHT22;3902;49.474;8.616;2023-08-20T14:33:31;39.90;84.70
7720;DHT22;3902;49.474;8.616;2023-08-20T14:35:56;39.90;87.80
7720;DHT22;3902;49.474;8.616;2023-08-20T14:38:22;39.80;87.40
7720;DHT22;3902;49.474;8.616;2023-08-20T14:40:47;39.70;87.30
7720;DHT22;3902;49.474;8.616;2023-08-20T14:43:13;39.60;88.20
7720;DHT22;3902;49.474;8.616;2023-08-20T14:45:38;39.60;88.50
7720;DHT22;3902;49.474;8.616;2023-08-20T14:48:04;39.50;87.30
7720;DHT22;3902;49.474;8.616;2023-08-20T14:50:30;39.50;88.20
7720;DHT22;3902;49.474;8.616;2023-08-20T14:52:56;39.40;87.90
7720;DHT22;3902;49.474;8.616;2023-08-20T14:55:22;39.30;87.70
7720;DHT22;3902;49.474;8.616;2023-08-20T14:57:47;39.30;87.60
7720;DHT22;3902;49.474;8.616;2023-08-20T15:00:14;39.30;86.60
7720;DHT22;3902;49.474;8.616;2023-08-20T15:02:43;39.20;87.10
7720;DHT22;3902;49.474;8.616;2023-08-20T15:05:10;39.10;87.80
7720;DHT22;3902;49.474;8.616;2023-08-20T15:07:35;39.10;88.70
7720;DHT22;3902;49.474;8.616;2023-08-20T15:10:05;39.10;87.40
7720;DHT22;3902;49.474;8.616;2023-08-20T15:12:33;39.00;86.80
7720;DHT22;3902;49.474;8.616;2023-08-20T15:14:59;39.00;85.20
7720;DHT22;3902;49.474;8.616;2023-08-20T15:17:25;38.80;87.10
7720;DHT22;3902;49.474;8.616;2023-08-20T15:19:50;38.80;87.50
7720;DHT22;3902;49.474;8.616;2023-08-20T15:22:15;38.70;87.30
7720;DHT22;3902;49.474;8.616;2023-08-20T15:24:42;38.70;88.80
7720;DHT22;3902;49.474;8.616;2023-08-20T15:27:08;38.60;87.00
7720;DHT22;3902;49.474;8.616;2023-08-20T15:29:33;38.50;87.20
7720;DHT22;3902;49.474;8.616;2023-08-20T15:31:59;38.50;88.00
7720;DHT22;3902;49.474;8.616;2023-08-20T15:34:24;38.40;88.80
7720;DHT22;3902;49.474;8.616;2023-08-20T15:36:50;38.20;86.70
7720;DHT22;3902;49.474;8.616;2023-08-20T15:39:16;38.00;87.60
7720;DHT22;3902;49.474;8.616;2023-08-20T15:41:44;37.80;88.60
7720;DHT22;3902;49.474;8.616;2023-08-20T15:44:11;37.50;88.10
7720;DHT22;3902;49.474;8.616;2023-08-20T15:46:38;37.30;89.70
7720;DHT22;3902;49.474;8.616;2023-08-20T15:49:04;37.10;90.00
7720;DHT22;3902;49.474;8.616;2023-08-20T15:51:29;36.90;90.40
7720;DHT22;3902;49.474;8.616;2023-08-20T15:53:55;36.70;90.20
7720;DHT22;3902;49.474;8.616;2023-08-20T15:56:21;36.60;90.40
7720;DHT22;3902;49.474;8.616;2023-08-20T15:58:47;36.50;90.90
7720;DHT22;3902;49.474;8.616;2023-08-20T16:01:13;36.30;90.00